createdAt,value
2017-08-15T00:00:02.704Z,0
2017-08-15T00:05:03.191Z,0
2017-08-15T00:10:02.775Z,0
2017-08-15T00:15:03.518Z,0
2017-08-15T00:20:02.956Z,0
2017-08-15T00:25:03.633Z,0
2017-08-15T00:30:03.340Z,0
2017-08-15T00:35:02.788Z,0
2017-08-15T00:40:03.401Z,0
2017-08-15T00:45:02.890Z,0
2017-08-15T00:50:03.506Z,0
2017-08-15T00:55:03.089Z,0
2017-08-15T01:00:03.666Z,0
2017-08-15T01:05:03.047Z,0
2017-08-15T01:10:02.805Z,0
2017-08-15T01:15:03.412Z,0
2017-08-15T01:20:02.881Z,0
2017-08-15T01:25:03.409Z,0
2017-08-15T01:30:02.952Z,0
2017-08-15T01:35:03.488Z,0
2017-08-15T01:40:02.922Z,0
2017-08-15T01:45:03.353Z,0
2017-08-15T01:50:02.938Z,0
2017-08-15T01:55:02.645Z,0
2017-08-15T02:00:03.159Z,0
2017-08-15T02:05:03.572Z,0
2017-08-15T02:10:03.187Z,0
2017-08-15T02:15:02.649Z,0
2017-08-15T02:20:03.135Z,0
2017-08-15T02:25:03.577Z,0
2017-08-15T02:30:03.279Z,0
2017-08-15T02:35:02.740Z,0
2017-08-15T02:40:03.208Z,0
2017-08-15T02:45:02.850Z,0
2017-08-15T02:50:03.414Z,0
2017-08-15T02:55:02.953Z,0
2017-08-15T03:00:03.526Z,0
2017-08-15T03:05:02.949Z,0
2017-08-15T03:10:02.628Z,0
2017-08-15T03:15:03.701Z,0
2017-08-15T03:20:03.196Z,0
2017-08-15T03:25:02.572Z,0
2017-08-15T03:30:03.301Z,0
2017-08-15T03:35:02.759Z,0
2017-08-15T03:40:03.434Z,0
2017-08-15T03:45:02.864Z,0
2017-08-15T03:50:03.311Z,0
2017-08-15T03:55:02.828Z,0
2017-08-15T04:00:03.409Z,0
2017-08-15T04:05:02.953Z,0
2017-08-15T04:10:03.238Z,0
2017-08-15T04:15:03.293Z,0
2017-08-15T04:20:03.332Z,0
2017-08-15T04:25:03.376Z,0
2017-08-15T04:30:03.454Z,0
2017-08-15T04:35:03.244Z,0
2017-08-15T04:40:03.409Z,0
2017-08-15T04:45:03.426Z,0
2017-08-15T04:50:03.558Z,0
2017-08-15T04:55:03.662Z,0
2017-08-15T05:00:03.662Z,0
2017-08-15T05:05:03.689Z,0
2017-08-15T05:10:02.799Z,0
2017-08-15T05:15:02.906Z,0
2017-08-15T05:20:03.090Z,0
2017-08-15T05:25:03.145Z,0
2017-08-15T05:30:03.352Z,0
2017-08-15T05:35:03.330Z,0
2017-08-15T05:40:02.779Z,0
2017-08-15T05:45:03.209Z,0
2017-08-15T05:50:02.674Z,0
2017-08-15T05:55:03.158Z,0
2017-08-15T06:00:02.584Z,0
2017-08-15T06:05:02.998Z,0
2017-08-15T06:10:02.636Z,0
2017-08-15T06:15:03.042Z,0
2017-08-15T06:20:02.566Z,0
2017-08-15T06:25:03.114Z,0
2017-08-15T06:30:02.628Z,0
2017-08-15T06:35:03.208Z,0
2017-08-15T06:40:02.674Z,0
2017-08-15T06:45:03.083Z,0
2017-08-15T06:50:02.625Z,0
2017-08-15T06:55:03.166Z,2
2017-08-15T07:00:03.546Z,1
2017-08-15T07:05:03.107Z,0
2017-08-15T07:10:02.578Z,0
2017-08-15T07:15:03.041Z,0
2017-08-15T07:20:02.645Z,0
2017-08-15T07:25:03.152Z,1
2017-08-15T07:30:03.596Z,0
2017-08-15T07:35:03.193Z,0
2017-08-15T07:40:02.663Z,0
2017-08-15T07:45:03.195Z,0
2017-08-15T07:50:02.603Z,0
2017-08-15T07:55:02.973Z,0
2017-08-15T08:00:03.459Z,3
2017-08-15T08:05:02.907Z,2
2017-08-15T08:10:03.505Z,3
2017-08-15T08:15:03.068Z,4
2017-08-15T08:20:03.553Z,3
2017-08-15T08:25:03.024Z,3
2017-08-15T08:30:03.446Z,1
2017-08-15T08:35:02.843Z,0
2017-08-15T08:40:03.490Z,2
2017-08-15T08:45:03.037Z,2
2017-08-15T08:50:03.539Z,0
2017-08-15T08:55:02.978Z,1
2017-08-15T09:00:03.545Z,2
2017-08-15T09:05:02.988Z,0
2017-08-15T09:10:03.537Z,0
2017-08-15T09:15:03.142Z,2
2017-08-15T09:20:02.603Z,1
2017-08-15T09:25:03.068Z,1
2017-08-15T09:30:02.645Z,2
2017-08-15T09:35:03.234Z,0
2017-08-15T09:40:02.868Z,0
2017-08-15T09:45:03.459Z,0
2017-08-15T09:50:02.998Z,0
2017-08-15T09:55:03.581Z,0
2017-08-15T10:00:03.083Z,0
2017-08-15T10:05:03.458Z,0
2017-08-15T10:10:02.994Z,1
2017-08-15T10:15:02.585Z,0
2017-08-15T10:20:03.084Z,3
2017-08-15T10:25:03.478Z,2
2017-08-15T10:30:02.983Z,0
2017-08-15T10:35:03.428Z,0
2017-08-15T10:40:02.897Z,0
2017-08-15T10:45:03.326Z,3
2017-08-15T10:50:02.784Z,2
2017-08-15T10:55:03.225Z,3
2017-08-15T11:00:02.683Z,1
2017-08-15T11:05:03.258Z,1
2017-08-15T11:10:02.721Z,0
2017-08-15T11:15:03.239Z,0
2017-08-15T11:20:02.724Z,0
2017-08-15T11:25:03.175Z,0
2017-08-15T11:30:03.576Z,0
2017-08-15T11:35:03.077Z,0
2017-08-15T11:40:03.564Z,0
2017-08-15T11:45:03.065Z,0
2017-08-15T11:50:02.630Z,0
2017-08-15T11:55:03.227Z,0
2017-08-15T12:00:02.659Z,0
2017-08-15T12:05:03.204Z,0
2017-08-15T12:10:03.132Z,0
2017-08-15T12:15:03.552Z,0
2017-08-15T12:20:03.201Z,2
2017-08-15T12:25:02.737Z,1
2017-08-15T12:30:03.320Z,0
2017-08-15T12:35:02.801Z,5
2017-08-15T12:40:03.399Z,1
2017-08-15T12:45:02.935Z,5
2017-08-15T12:50:03.523Z,5
2017-08-15T12:55:03.172Z,3
2017-08-15T13:00:02.597Z,3
2017-08-15T13:05:03.155Z,4
2017-08-15T13:10:02.702Z,0
2017-08-15T13:15:03.162Z,3
2017-08-15T13:20:02.659Z,3
2017-08-15T13:25:03.067Z,6
2017-08-15T13:30:02.705Z,3
2017-08-15T13:35:03.251Z,5
2017-08-15T13:40:02.800Z,3
2017-08-15T13:45:03.377Z,5
2017-08-15T13:50:02.915Z,5
2017-08-15T13:55:03.437Z,6
2017-08-15T14:00:02.907Z,5
2017-08-15T14:05:03.305Z,3
2017-08-15T14:10:02.757Z,3
2017-08-15T14:15:03.332Z,3
2017-08-15T14:20:02.801Z,3
2017-08-15T14:25:03.350Z,4
2017-08-15T14:30:02.877Z,4
2017-08-15T14:35:03.482Z,7
2017-08-15T14:40:03.079Z,5
2017-08-15T14:45:03.537Z,7
2017-08-15T14:50:02.970Z,5
2017-08-15T14:55:03.529Z,7
2017-08-15T15:00:02.970Z,5
2017-08-15T15:05:03.462Z,8
2017-08-15T15:10:03.048Z,4
2017-08-15T15:15:03.545Z,4
2017-08-15T15:20:02.980Z,5
2017-08-15T15:25:03.439Z,9
2017-08-15T15:30:03.073Z,5
2017-08-15T15:40:03.027Z,7
2017-08-15T15:45:03.495Z,10
2017-08-15T15:50:03.005Z,7
2017-08-15T15:55:02.570Z,6
2017-08-15T16:00:03.046Z,6
2017-08-15T16:05:03.562Z,6
2017-08-15T16:10:03.050Z,9
2017-08-15T16:15:02.665Z,8
2017-08-15T16:20:03.292Z,7
2017-08-15T16:25:02.734Z,7
2017-08-15T16:30:03.191Z,7
2017-08-15T16:35:02.628Z,9
2017-08-15T16:40:03.156Z,6
2017-08-15T16:45:02.634Z,6
2017-08-15T16:50:03.264Z,6
2017-08-15T16:55:02.803Z,5
2017-08-15T17:00:03.262Z,7
2017-08-15T17:05:02.812Z,6
2017-08-15T17:10:03.403Z,7
2017-08-15T17:15:02.828Z,3
2017-08-15T17:20:03.458Z,5
2017-08-15T17:25:02.886Z,5
2017-08-15T17:30:03.469Z,4
2017-08-15T17:35:02.994Z,5
2017-08-15T17:40:03.557Z,6
2017-08-15T17:45:02.969Z,4
2017-08-15T17:50:03.436Z,5
2017-08-15T17:55:02.902Z,5
2017-08-15T18:05:03.091Z,3
2017-08-15T18:10:02.603Z,3
2017-08-15T18:15:03.185Z,3
2017-08-15T18:20:02.661Z,3
2017-08-15T18:25:03.093Z,3
2017-08-15T18:30:02.666Z,2
2017-08-15T18:35:03.134Z,0
2017-08-15T18:40:02.726Z,0
2017-08-15T18:45:03.131Z,0
2017-08-15T18:50:02.683Z,0
2017-08-15T18:55:03.194Z,3
2017-08-15T19:00:02.762Z,3
2017-08-15T19:05:03.333Z,0
2017-08-15T19:10:02.957Z,1
2017-08-15T19:15:03.453Z,2
2017-08-15T19:20:02.944Z,0
2017-08-15T19:25:03.352Z,0
2017-08-15T19:30:02.917Z,0
2017-08-15T19:35:03.462Z,0
2017-08-15T19:40:03.077Z,0
2017-08-15T19:45:03.531Z,0
2017-08-15T19:50:03.145Z,0
2017-08-15T19:55:03.567Z,0
2017-08-15T20:00:03.137Z,0
2017-08-15T20:05:02.733Z,2
2017-08-15T20:10:03.290Z,0
2017-08-15T20:15:02.830Z,0
2017-08-15T20:20:03.380Z,2
2017-08-15T20:25:02.896Z,2
2017-08-15T20:30:03.437Z,1
2017-08-15T20:35:02.871Z,0
2017-08-15T20:40:03.501Z,0
2017-08-15T20:45:02.960Z,0
2017-08-15T20:50:03.560Z,0
2017-08-15T20:55:03.108Z,2
2017-08-15T21:00:02.726Z,0
2017-08-15T21:05:03.188Z,0
2017-08-15T21:10:02.797Z,2
2017-08-15T21:15:03.398Z,2
2017-08-15T21:20:02.943Z,4
2017-08-15T21:25:03.543Z,3
2017-08-15T21:30:02.956Z,3
2017-08-15T21:35:03.421Z,3
2017-08-15T21:40:02.940Z,3
2017-08-15T21:45:03.348Z,0
2017-08-15T21:50:02.752Z,1
2017-08-15T21:55:03.315Z,3
2017-08-15T22:00:02.861Z,3
2017-08-15T22:05:03.420Z,2
2017-08-15T22:10:03.024Z,0
2017-08-15T22:15:02.557Z,2
2017-08-15T22:20:03.179Z,3
2017-08-15T22:25:03.554Z,2
2017-08-15T22:30:03.074Z,4
2017-08-15T22:35:03.537Z,3
2017-08-15T22:40:03.126Z,1
2017-08-15T22:45:02.659Z,2
2017-08-15T22:50:03.324Z,2
2017-08-15T22:55:02.827Z,5
2017-08-15T23:00:03.459Z,1
2017-08-15T23:05:02.758Z,2
2017-08-15T23:10:03.257Z,2
2017-08-15T23:15:02.704Z,2
2017-08-15T23:20:03.241Z,0
2017-08-15T23:25:02.785Z,2
2017-08-15T23:30:03.274Z,3
2017-08-15T23:35:02.885Z,2
2017-08-15T23:40:03.368Z,3
2017-08-15T23:45:02.772Z,2
2017-08-15T23:50:03.338Z,3
2017-08-15T23:55:02.870Z,2
